Terminal Aerodrome Forecast
Issued by NWS Billings, MT

Home | Current Version | Previous Version | Text Only | Print | Product List | Glossary On
Versions: 1 2 3 4 5 6 7 8 9 10 11 12 13
000
FTUS45 KBYZ 050526
TAFBIL
TAF
KBIL 050526Z 0506/0606 33016KT P6SM VCSH SCT020 BKN040 OVC060
     FM051000 31016G24KT P6SM VCSH SCT040 BKN060
     FM060100 35010KT P6SM SCT040 BKN080=

USA.gov is the U.S. government's official web portal to all federal, state and local government web resources and services.